createdAt,value
2022-11-28T00:01:15.164Z,101387.09
2022-11-28T00:04:18.893Z,101380.16
2022-11-28T00:07:22.871Z,101374.13
2022-11-28T00:10:26.747Z,101374.97
2022-11-28T00:13:31.731Z,101380.16
2022-11-28T00:16:35.864Z,101375.84
2022-11-28T00:19:39.798Z,101374.16
2022-11-28T00:22:43.406Z,101370.66
2022-11-28T00:25:46.986Z,101354.19
2022-11-28T00:28:52.300Z,101349.88
2022-11-28T00:31:55.977Z,101347.31
2022-11-28T00:34:59.614Z,101346.44
2022-11-28T00:38:03.170Z,101336.91
2022-11-28T00:41:10.881Z,101345.56
2022-11-28T00:44:16.733Z,101338.63
2022-11-28T00:47:20.315Z,101350.75
2022-11-28T00:50:23.910Z,101344.69
2022-11-28T00:53:27.565Z,101336.91
2022-11-28T00:56:34.938Z,101330.84
2022-11-28T00:59:40.135Z,101324.78
2022-11-28T01:02:43.727Z,101303.97
2022-11-28T01:05:47.402Z,101296.19
2022-11-28T01:08:51.221Z,101297.94
2022-11-28T01:11:55.879Z,101292.75
2022-11-28T01:15:01.257Z,101298.78
2022-11-28T01:18:05.409Z,101296.16
2022-11-28T01:21:10.406Z,101281.44
2022-11-28T01:24:14.651Z,101278.84
2022-11-28T01:27:18.283Z,101294.41
2022-11-28T01:30:23.448Z,101294.41
2022-11-28T01:33:27.142Z,101274.53
2022-11-28T01:36:31.427Z,101272.75
2022-11-28T01:39:35.128Z,101260.66
2022-11-28T01:42:39.104Z,101263.22
2022-11-28T01:45:44.291Z,101263.22
2022-11-28T01:48:48.044Z,101255.41
2022-11-28T01:51:58.385Z,101258.03
2022-11-28T01:55:04.369Z,101253.66
2022-11-28T01:58:08.210Z,101250.19
2022-11-28T02:01:14.397Z,101246.72
2022-11-28T02:04:18.037Z,101238.91
2022-11-28T02:07:22.445Z,101224.19
2022-11-28T02:10:33.886Z,101232.00
2022-11-28T02:13:48.228Z,101216.41
2022-11-28T02:17:10.438Z,101218.09
2022-11-28T02:21:06.253Z,101215.50
2022-11-28T02:25:04.203Z,101212.00
2022-11-28T02:28:51.436Z,101201.63
2022-11-28T02:32:18.170Z,101202.50
2022-11-28T02:35:34.577Z,101197.28
2022-11-28T02:38:57.334Z,101193.81
2022-11-28T02:42:13.510Z,101193.81
2022-11-28T02:45:42.865Z,101193.81
2022-11-28T02:48:56.542Z,101193.81
2022-11-28T02:52:08.165Z,101190.34
2022-11-28T02:55:15.870Z,101189.47
2022-11-28T02:58:19.532Z,101185.13
2022-11-28T03:01:29.484Z,101190.28
2022-11-28T03:04:45.987Z,101178.19
2022-11-28T03:08:06.622Z,101179.06
2022-11-28T03:11:21.212Z,101185.09
2022-11-28T03:14:45.659Z,101183.34
2022-11-28T03:18:03.291Z,101185.13
2022-11-28T03:21:19.011Z,101179.03
2022-11-28T03:24:33.373Z,101177.31
2022-11-28T03:27:44.574Z,101178.16
2022-11-28T03:30:54.879Z,101181.63
2022-11-28T03:34:04.724Z,101179.91
2022-11-28T03:37:15.189Z,101172.91
2022-11-28T03:40:24.922Z,101171.22
2022-11-28T03:43:37.803Z,101171.22
2022-11-28T03:46:49.833Z,101172.09
2022-11-28T03:49:58.179Z,101173.81
2022-11-28T03:53:10.527Z,101176.38
2022-11-28T03:56:22.042Z,101178.09
2022-11-28T03:59:35.782Z,101173.78
2022-11-28T04:02:49.562Z,101174.66
2022-11-28T04:06:00.719Z,101184.19
2022-11-28T04:09:14.782Z,101176.34
2022-11-28T04:12:34.562Z,101187.63
2022-11-28T04:15:49.343Z,101178.13
2022-11-28T04:19:01.080Z,101173.81
2022-11-28T04:22:13.962Z,101179.88
2022-11-28T04:25:24.716Z,101177.28
2022-11-28T04:28:34.454Z,101170.41
2022-11-28T04:31:40.752Z,101177.31
2022-11-28T04:34:51.847Z,101174.72
2022-11-28T04:37:58.542Z,101173.03
2022-11-28T04:41:14.117Z,101170.41
2022-11-28T04:44:25.707Z,101174.72
2022-11-28T04:47:30.039Z,101166.06
2022-11-28T04:50:47.893Z,101164.31
2022-11-28T04:54:02.142Z,101159.16
2022-11-28T04:57:17.702Z,101171.28
2022-11-28T05:00:23.623Z,101162.59
2022-11-28T05:03:31.276Z,101165.22
2022-11-28T05:06:37.721Z,101169.59
2022-11-28T05:09:41.967Z,101171.31
2022-11-28T05:12:47.271Z,101172.22
2022-11-28T05:15:50.943Z,101180.00
2022-11-28T05:18:54.690Z,101175.69
2022-11-28T05:21:58.373Z,101180.09
2022-11-28T05:25:01.992Z,101178.34
2022-11-28T05:28:07.108Z,101185.28
2022-11-28T05:31:10.731Z,101173.19
2022-11-28T05:34:14.343Z,101179.28
2022-11-28T05:37:18.122Z,101179.25
2022-11-28T05:40:21.839Z,101189.66
2022-11-28T05:43:27.153Z,101182.75
2022-11-28T05:46:37.022Z,101186.22
2022-11-28T05:49:40.845Z,101185.38
2022-11-28T05:52:44.756Z,101181.03
2022-11-28T05:55:49.110Z,101181.91
2022-11-28T05:58:54.639Z,101188.00
2022-11-28T06:01:58.415Z,101191.41
2022-11-28T06:05:21.006Z,101201.81
2022-11-28T06:08:25.847Z,101199.22
2022-11-28T06:11:32.968Z,101201.81
2022-11-28T06:14:38.001Z,101195.78
2022-11-28T06:17:41.626Z,101193.19
2022-11-28T06:20:45.215Z,101194.94
2022-11-28T06:23:49.017Z,101193.22
2022-11-28T06:26:52.678Z,101197.56
2022-11-28T06:29:57.698Z,101205.34
2022-11-28T06:33:01.259Z,101199.25
2022-11-28T06:36:07.978Z,101201.03
2022-11-28T06:39:15.394Z,101201.91
2022-11-28T06:42:20.033Z,101207.09
2022-11-28T06:45:41.553Z,101213.13
2022-11-28T06:48:45.955Z,101207.09
2022-11-28T06:51:49.680Z,101212.28
2022-11-28T06:54:53.309Z,101218.31
2022-11-28T06:57:56.915Z,101223.53
2022-11-28T07:01:09.332Z,101225.25
2022-11-28T07:04:13.018Z,101215.72
2022-11-28T07:07:17.049Z,101219.19
2022-11-28T07:10:21.029Z,101222.69
2022-11-28T07:13:25.550Z,101220.06
2022-11-28T07:16:34.372Z,101235.66
2022-11-28T07:19:38.403Z,101226.13
2022-11-28T07:22:42.425Z,101234.78
2022-11-28T07:25:46.381Z,101234.78
2022-11-28T07:28:51.238Z,101233.94
2022-11-28T07:31:56.209Z,101229.59
2022-11-28T07:35:00.437Z,101237.41
2022-11-28T07:38:04.343Z,101246.03
2022-11-28T07:41:10.598Z,101243.44
2022-11-28T07:44:17.860Z,101247.75
2022-11-28T07:47:23.183Z,101243.44
2022-11-28T07:50:26.910Z,101247.78
2022-11-28T07:53:30.586Z,101243.44
2022-11-28T07:57:11.672Z,101246.03
2022-11-28T08:00:01.919Z,101252.94
2022-11-28T08:03:06.975Z,101258.16
2022-11-28T08:06:10.931Z,101262.50
2022-11-28T08:09:14.675Z,101255.56
2022-11-28T08:12:18.258Z,101259.88
2022-11-28T08:15:21.973Z,101256.44
2022-11-28T08:18:27.174Z,101252.97
2022-11-28T08:21:34.451Z,101259.03
2022-11-28T08:24:38.330Z,101259.91
2022-11-28T08:27:41.894Z,101264.22
2022-11-28T08:30:46.406Z,101268.56
2022-11-28T08:33:53.663Z,101256.44
2022-11-28T08:36:57.298Z,101263.38
2022-11-28T08:40:00.861Z,101265.94
2022-11-28T08:43:04.886Z,101254.72
2022-11-28T08:46:12.422Z,101257.31
2022-11-28T08:49:17.485Z,101261.63
2022-11-28T08:52:22.186Z,101264.25
2022-11-28T08:55:32.397Z,101261.66
2022-11-28T08:58:37.132Z,101262.50
2022-11-28T09:01:40.767Z,101259.03
2022-11-28T09:04:45.944Z,101257.31
2022-11-28T09:07:49.605Z,101252.97
2022-11-28T09:10:53.256Z,101265.09
2022-11-28T09:13:56.930Z,101262.47
2022-11-28T09:17:00.621Z,101259.91
2022-11-28T09:20:07.461Z,101263.38
2022-11-28T09:23:12.050Z,101268.56
2022-11-28T09:26:19.579Z,101262.50
2022-11-28T09:29:23.138Z,101265.09
2022-11-28T09:32:26.963Z,101264.22
2022-11-28T09:35:31.914Z,101259.91
2022-11-28T09:38:35.725Z,101255.56
2022-11-28T09:41:55.448Z,101257.31
2022-11-28T09:45:06.807Z,101254.69
2022-11-28T09:48:27.406Z,101254.69
2022-11-28T09:51:43.506Z,101255.56
2022-11-28T09:55:01.461Z,101266.81
2022-11-28T09:58:16.670Z,101258.16
2022-11-28T10:01:31.558Z,101252.13
2022-11-28T10:04:46.563Z,101251.22
2022-11-28T10:08:15.245Z,101248.63
2022-11-28T10:11:37.231Z,101252.13
2022-11-28T10:15:26.490Z,101246.03
2022-11-28T10:18:41.481Z,101249.50
2022-11-28T10:21:57.857Z,101243.44
2022-11-28T10:25:16.727Z,101256.44
2022-11-28T10:28:27.783Z,101247.78
2022-11-28T10:31:40.492Z,101250.38
2022-11-28T10:34:52.757Z,101252.09
2022-11-28T10:37:56.349Z,101255.53
2022-11-28T10:41:14.302Z,101252.97
2022-11-28T10:44:28.308Z,101253.81
2022-11-28T10:48:37.226Z,101254.69
2022-11-28T10:51:44.123Z,101248.59
2022-11-28T10:55:23.957Z,101253.78
2022-11-28T10:58:40.019Z,101256.41
2022-11-28T11:01:49.798Z,101245.13
2022-11-28T11:04:54.240Z,101250.31
2022-11-28T11:08:00.805Z,101245.13
2022-11-28T11:11:09.214Z,101248.59
2022-11-28T11:14:14.682Z,101244.28
2022-11-28T11:17:37.820Z,101242.53
2022-11-28T11:20:41.880Z,101233.84
2022-11-28T11:23:49.017Z,101239.91
2022-11-28T11:26:53.139Z,101241.63
2022-11-28T11:29:58.405Z,101245.97
2022-11-28T11:33:06.674Z,101245.09
2022-11-28T11:36:26.725Z,101245.97
2022-11-28T11:39:30.431Z,101242.50
2022-11-28T11:42:34.800Z,101241.63
2022-11-28T11:45:40.439Z,101238.16
2022-11-28T11:48:46.894Z,101241.63
2022-11-28T11:51:58.641Z,101238.09
2022-11-28T11:55:13.143Z,101245.03
2022-11-28T11:58:23.465Z,101241.59
2022-11-28T12:01:33.119Z,101233.81
2022-11-28T12:04:49.012Z,101245.06
2022-11-28T12:08:02.800Z,101246.78
2022-11-28T12:11:17.354Z,101252.00
2022-11-28T12:14:33.221Z,101248.53
2022-11-28T12:17:58.783Z,101255.44
2022-11-28T12:21:15.005Z,101244.19
2022-11-28T12:24:30.290Z,101238.16
2022-11-28T12:27:56.821Z,101245.94
2022-11-28T12:31:15.921Z,101236.44
2022-11-28T12:34:36.715Z,101247.66
2022-11-28T12:38:13.053Z,101244.22
2022-11-28T12:41:51.769Z,101243.38
2022-11-28T12:45:31.761Z,101238.19
2022-11-28T12:48:55.061Z,101238.16
2022-11-28T12:52:23.519Z,101235.56
2022-11-28T12:55:45.333Z,101239.03
2022-11-28T12:59:02.078Z,101235.56
2022-11-28T13:02:40.486Z,101232.09
2022-11-28T13:05:59.291Z,101236.41
2022-11-28T13:09:28.989Z,101230.34
2022-11-28T13:12:55.216Z,101227.75
2022-11-28T13:16:09.575Z,101235.53
2022-11-28T13:19:34.705Z,101235.56
2022-11-28T13:22:58.387Z,101231.22
2022-11-28T13:26:12.600Z,101234.69
2022-11-28T13:29:33.218Z,101235.53
2022-11-28T13:32:44.832Z,101239.00
2022-11-28T13:35:49.410Z,101234.69
2022-11-28T13:39:12.315Z,101240.78
2022-11-28T13:43:08.244Z,101235.56
2022-11-28T13:46:03.018Z,101240.75
2022-11-28T13:49:21.177Z,101240.75
2022-11-28T13:52:42.655Z,101242.50
2022-11-28T13:55:47.970Z,101245.09
2022-11-28T13:58:57.633Z,101249.41
2022-11-28T14:02:06.384Z,101251.16
2022-11-28T14:05:28.338Z,101248.56
2022-11-28T14:08:37.998Z,101254.63
2022-11-28T14:12:07.811Z,101251.13
2022-11-28T14:15:33.236Z,101256.34
2022-11-28T14:19:03.623Z,101262.41
2022-11-28T14:22:29.558Z,101258.09
2022-11-28T14:25:40.745Z,101265.00
2022-11-28T14:28:46.707Z,101257.22
2022-11-28T14:32:28.027Z,101266.72
2022-11-28T14:36:16.779Z,101269.31
2022-11-28T14:39:37.043Z,101272.81
2022-11-28T14:46:57.853Z,101273.69
2022-11-28T14:50:54.552Z,101284.06
2022-11-28T14:54:03.214Z,101289.25
2022-11-28T14:57:18.600Z,101289.25
2022-11-28T15:00:27.117Z,101296.19
2022-11-28T15:03:44.304Z,101291.84
2022-11-28T15:06:50.450Z,101290.16
2022-11-28T15:10:09.499Z,101294.44
2022-11-28T15:13:35.796Z,101295.34
2022-11-28T15:16:49.925Z,101291.88
2022-11-28T15:19:54.846Z,101296.19
2022-11-28T15:22:59.819Z,101298.81
2022-11-28T15:26:04.733Z,101300.53
2022-11-28T15:29:12.636Z,101300.53
2022-11-28T15:32:17.740Z,101300.53
2022-11-28T15:35:22.980Z,101299.69
2022-11-28T15:38:30.692Z,101299.66
2022-11-28T15:41:34.450Z,101304.00
2022-11-28T15:44:38.835Z,101307.47
2022-11-28T15:47:45.684Z,101313.50
2022-11-28T15:50:52.904Z,101308.31
2022-11-28T15:53:58.375Z,101307.47
2022-11-28T15:57:03.074Z,101310.94
2022-11-28T16:00:13.533Z,101306.59
2022-11-28T16:03:25.994Z,101310.94
2022-11-28T16:06:34.167Z,101298.81
2022-11-28T16:09:39.484Z,101305.75
2022-11-28T16:12:44.274Z,101300.56
2022-11-28T16:15:50.681Z,101299.69
2022-11-28T16:19:00.530Z,101303.16
2022-11-28T16:22:09.103Z,101306.59
2022-11-28T16:25:23.914Z,101313.53
2022-11-28T16:28:36.868Z,101313.53
2022-11-28T16:31:41.520Z,101318.75
2022-11-28T16:34:49.122Z,101313.53
2022-11-28T16:37:53.589Z,101314.41
2022-11-28T16:41:02.671Z,101318.75
2022-11-28T16:44:12.795Z,101320.47
2022-11-28T16:47:29.361Z,101325.66
2022-11-28T16:50:33.358Z,101325.66
2022-11-28T16:53:45.692Z,101330.84
2022-11-28T16:56:50.709Z,101326.53
2022-11-28T16:59:54.370Z,101336.03
2022-11-28T17:02:57.988Z,101333.47
2022-11-28T17:06:01.911Z,101333.44
2022-11-28T17:09:08.056Z,101335.16
2022-11-28T17:12:25.537Z,101339.50
2022-11-28T17:15:29.286Z,101332.59
2022-11-28T17:18:33.035Z,101330.84
2022-11-28T17:21:41.967Z,101344.69
2022-11-28T17:24:46.594Z,101343.84
2022-11-28T17:27:53.032Z,101332.59
2022-11-28T17:30:56.706Z,101335.19
2022-11-28T17:34:00.312Z,101345.56
2022-11-28T17:37:06.025Z,101349.91
2022-11-28T17:40:28.363Z,101353.38
2022-11-28T17:43:38.709Z,101349.91
2022-11-28T17:46:42.731Z,101351.66
2022-11-28T17:49:46.714Z,101354.25
2022-11-28T17:52:50.502Z,101354.25
2022-11-28T17:55:59.638Z,101355.09
2022-11-28T17:59:05.833Z,101362.03
2022-11-28T18:02:12.191Z,101354.25
2022-11-28T18:05:17.102Z,101360.28
2022-11-28T18:08:22.607Z,101357.69
2022-11-28T18:11:26.782Z,101355.94
2022-11-28T18:14:36.596Z,101355.94
2022-11-28T18:17:43.261Z,101365.47
2022-11-28T18:20:46.789Z,101361.16
2022-11-28T18:23:51.336Z,101365.50
2022-11-28T18:26:54.910Z,101375.03
2022-11-28T18:29:59.920Z,101368.09
2022-11-28T18:33:03.669Z,101376.72
2022-11-28T18:36:12.379Z,101374.16
2022-11-28T18:39:17.110Z,101381.06
2022-11-28T18:42:20.800Z,101375.00
2022-11-28T18:45:25.814Z,101377.59
2022-11-28T18:48:29.483Z,101372.41
2022-11-28T18:51:35.564Z,101377.59
2022-11-28T18:54:39.583Z,101381.94
2022-11-28T18:57:43.186Z,101382.81
2022-11-28T19:00:49.211Z,101390.56
2022-11-28T19:03:55.401Z,101383.66
2022-11-28T19:07:00.492Z,101394.91
2022-11-28T19:10:04.549Z,101382.78
2022-11-28T19:13:08.114Z,101383.63
2022-11-28T19:16:25.397Z,101384.53
2022-11-28T19:19:29.630Z,101394.91
2022-11-28T19:22:33.203Z,101389.72
2022-11-28T19:25:36.849Z,101389.72
2022-11-28T19:28:42.957Z,101397.50
2022-11-28T19:31:48.043Z,101386.25
2022-11-28T19:34:52.402Z,101389.69
2022-11-28T19:37:56.034Z,101395.78
2022-11-28T19:40:59.678Z,101394.91
2022-11-28T19:44:03.970Z,101401.81
2022-11-28T19:47:09.010Z,101396.63
2022-11-28T19:50:13.390Z,101399.22
2022-11-28T19:53:17.086Z,101399.22
2022-11-28T19:56:23.725Z,101399.22
2022-11-28T19:59:28.937Z,101400.97
2022-11-28T20:02:34.029Z,101405.28
2022-11-28T20:05:40.850Z,101403.53
2022-11-28T20:08:45.309Z,101412.22
2022-11-28T20:11:49.192Z,101411.34
2022-11-28T20:14:53.103Z,101415.69
2022-11-28T20:17:58.174Z,101420.00
2022-11-28T20:21:07.843Z,101420.84
2022-11-28T20:24:12.626Z,101417.41
2022-11-28T20:27:16.292Z,101427.78
2022-11-28T20:30:20.258Z,101425.19
2022-11-28T20:33:25.437Z,101437.31
2022-11-28T20:36:32.794Z,101439.03
2022-11-28T20:39:36.705Z,101436.44
2022-11-28T20:42:40.430Z,101439.88
2022-11-28T20:45:44.237Z,101438.16
2022-11-28T20:48:50.810Z,101438.16
2022-11-28T20:51:54.552Z,101437.28
2022-11-28T20:54:58.258Z,101438.16
2022-11-28T20:58:01.830Z,101449.41
2022-11-28T21:01:06.656Z,101444.22
2022-11-28T21:04:16.523Z,101449.41
2022-11-28T21:07:20.142Z,101436.44
2022-11-28T21:10:23.818Z,101443.31
2022-11-28T21:13:27.635Z,101450.25
2022-11-28T21:16:33.711Z,101452.00
2022-11-28T21:19:38.882Z,101457.19
2022-11-28T21:22:43.034Z,101449.41
2022-11-28T21:25:49.619Z,101449.41
2022-11-28T21:28:57.386Z,101453.75
2022-11-28T21:32:01.436Z,101458.91
2022-11-28T21:35:07.877Z,101456.31
2022-11-28T21:38:12.036Z,101456.31
2022-11-28T21:41:15.821Z,101457.19
2022-11-28T21:44:19.616Z,101463.22
2022-11-28T21:47:23.248Z,101464.09
2022-11-28T21:50:28.309Z,101457.19
2022-11-28T21:53:33.630Z,101471.88
2022-11-28T21:56:37.258Z,101470.13
2022-11-28T21:59:41.049Z,101471.03
2022-11-28T22:02:46.441Z,101468.41
2022-11-28T22:05:52.611Z,101469.28
2022-11-28T22:08:56.627Z,101471.03
2022-11-28T22:12:00.171Z,101469.28
2022-11-28T22:15:04.671Z,101469.28
2022-11-28T22:18:08.382Z,101471.03
2022-11-28T22:21:49.799Z,101472.72
2022-11-28T22:24:39.705Z,101468.44
2022-11-28T22:27:43.431Z,101477.06
2022-11-28T22:30:47.263Z,101469.28
2022-11-28T22:33:51.874Z,101467.53
2022-11-28T22:36:56.893Z,101477.91
2022-11-28T22:40:00.692Z,101478.81
2022-11-28T22:43:04.368Z,101481.41
2022-11-28T22:46:09.732Z,101481.34
2022-11-28T22:49:13.465Z,101483.09
2022-11-28T22:52:18.594Z,101478.78
2022-11-28T22:55:23.313Z,101477.91
2022-11-28T22:58:26.940Z,101479.66
2022-11-28T23:01:34.010Z,101485.69
2022-11-28T23:04:37.915Z,101478.81
2022-11-28T23:07:42.980Z,101475.31
2022-11-28T23:10:46.606Z,101480.50
2022-11-28T23:13:51.536Z,101479.63
2022-11-28T23:16:55.281Z,101478.75
2022-11-28T23:19:58.944Z,101480.50
2022-11-28T23:23:04.018Z,101483.09
2022-11-28T23:26:11.088Z,101483.09
2022-11-28T23:29:15.856Z,101483.94
2022-11-28T23:32:19.419Z,101478.75
2022-11-28T23:35:23.034Z,101475.31
2022-11-28T23:38:28.007Z,101485.69
2022-11-28T23:41:32.264Z,101483.94
2022-11-28T23:44:35.883Z,101481.34
2022-11-28T23:47:39.418Z,101483.06
2022-11-28T23:50:43.356Z,101486.53
2022-11-28T23:53:49.947Z,101487.41
2022-11-28T23:56:53.561Z,101481.34
2022-11-28T23:59:57.184Z,101485.63
